createdAt,value
2023-08-02T12:52:42.801Z,59.63
2023-08-02T12:55:08.965Z,59.69
2023-08-02T12:57:35.117Z,59.72
2023-08-02T13:00:01.290Z,59.81
2023-08-02T13:02:27.523Z,59.52
2023-08-02T13:04:53.908Z,59.69
2023-08-02T13:07:20.142Z,59.73
2023-08-02T13:09:46.414Z,59.59
2023-08-02T13:12:14.150Z,59.81
2023-08-02T13:14:42.830Z,59.70
2023-08-02T13:17:08.982Z,59.72
2023-08-02T13:19:35.129Z,59.63
2023-08-02T13:22:01.272Z,59.69
2023-08-02T13:24:27.436Z,59.60
2023-08-02T13:26:53.583Z,59.74
2023-08-02T13:29:20.724Z,59.85
2023-08-02T13:31:49.057Z,59.62
2023-08-02T13:34:15.211Z,59.79
2023-08-02T13:36:41.634Z,59.65
2023-08-02T13:39:08.006Z,59.69
2023-08-02T13:41:34.130Z,59.70
2023-08-02T13:44:00.299Z,59.63
2023-08-02T13:46:26.446Z,59.83
2023-08-02T13:48:52.625Z,59.77
2023-08-02T13:51:18.798Z,59.76
2023-08-02T13:53:44.946Z,59.59
2023-08-02T13:56:11.084Z,59.82
2023-08-02T13:58:37.234Z,59.79
2023-08-02T14:01:03.424Z,59.89
2023-08-02T14:03:29.645Z,59.77
2023-08-02T14:05:55.917Z,59.84
2023-08-02T14:08:22.214Z,59.84
2023-08-02T14:10:48.378Z,59.87
2023-08-02T14:13:14.523Z,59.83
2023-08-02T14:15:40.693Z,59.85
2023-08-02T14:18:06.891Z,59.93
2023-08-02T14:20:33.140Z,59.87
2023-08-02T14:22:59.291Z,59.87
2023-08-02T14:25:25.439Z,59.84
2023-08-02T14:27:51.718Z,60.07
2023-08-02T14:30:17.868Z,59.95
2023-08-02T14:32:44.012Z,60.09
2023-08-02T14:35:10.213Z,60.00
2023-08-02T14:37:36.385Z,60.15
2023-08-02T14:40:02.522Z,59.94
2023-08-02T14:42:28.690Z,59.73
2023-08-02T14:44:54.836Z,60.02
2023-08-02T14:47:20.967Z,60.12
2023-08-02T14:49:47.119Z,60.22
2023-08-02T14:52:15.001Z,60.28
2023-08-02T14:54:41.444Z,60.28
2023-08-02T14:57:07.655Z,60.10
2023-08-02T14:59:33.793Z,60.20
2023-08-02T15:01:59.969Z,60.34
2023-08-02T15:04:26.147Z,60.32
2023-08-02T15:06:52.344Z,60.35
2023-08-02T15:09:18.550Z,60.22
2023-08-02T15:11:44.902Z,60.26
2023-08-02T15:14:11.098Z,60.24
2023-08-02T15:16:37.317Z,60.18
2023-08-02T15:19:03.986Z,60.42
2023-08-02T15:21:30.121Z,60.19
2023-08-02T15:23:56.389Z,60.26
2023-08-02T15:26:22.758Z,60.31
2023-08-02T15:28:49.100Z,60.26
2023-08-02T15:31:15.297Z,60.26
2023-08-02T15:33:41.478Z,60.37
2023-08-02T15:36:07.611Z,60.27
2023-08-02T15:38:33.749Z,60.24
2023-08-02T15:40:59.920Z,60.46
2023-08-02T15:43:26.082Z,60.36
2023-08-02T15:45:52.248Z,60.34
2023-08-02T15:48:18.415Z,60.42
2023-08-02T15:50:44.564Z,60.35
2023-08-02T15:53:10.702Z,60.42
2023-08-02T15:55:36.868Z,60.52
2023-08-02T15:58:03.002Z,60.37
2023-08-02T16:00:29.217Z,60.47
2023-08-02T16:02:55.930Z,60.39
2023-08-02T16:05:22.094Z,60.45
2023-08-02T16:07:48.261Z,60.40
2023-08-02T16:10:14.453Z,60.46
2023-08-02T16:12:40.649Z,60.40
2023-08-02T16:15:06.799Z,60.65
2023-08-02T16:17:32.972Z,60.57
2023-08-02T16:19:59.158Z,60.52
2023-08-02T16:22:25.343Z,60.62
2023-08-02T16:24:51.500Z,60.58
2023-08-02T16:27:17.629Z,60.52
2023-08-02T16:29:43.763Z,60.65
2023-08-02T16:32:09.936Z,60.85
2023-08-02T16:34:36.094Z,60.79
2023-08-02T16:37:02.259Z,60.84
2023-08-02T16:39:28.431Z,60.96
2023-08-02T16:41:54.569Z,60.87
2023-08-02T16:44:20.713Z,61.09
2023-08-02T16:46:46.903Z,61.04
2023-08-02T16:49:13.103Z,61.04
2023-08-02T16:51:39.256Z,61.26
2023-08-02T16:54:05.420Z,61.20
2023-08-02T16:56:31.568Z,61.02
2023-08-02T16:58:57.722Z,61.24
2023-08-02T17:01:24.019Z,61.02
2023-08-02T17:03:50.256Z,61.04
2023-08-02T17:06:16.497Z,61.02
2023-08-02T17:08:43.293Z,61.02
2023-08-02T17:11:09.636Z,61.11
2023-08-02T17:13:35.847Z,61.09
2023-08-02T17:16:02.031Z,60.99
2023-08-02T17:18:28.203Z,61.15
2023-08-02T17:20:54.341Z,61.14
2023-08-02T17:23:20.514Z,61.08
2023-08-02T17:25:46.746Z,61.35
2023-08-02T17:28:12.903Z,61.19
2023-08-02T17:30:39.136Z,61.22
2023-08-02T17:33:05.389Z,61.53
2023-08-02T17:35:31.713Z,61.29
2023-08-02T17:37:57.929Z,61.57
2023-08-02T17:40:24.185Z,61.30
2023-08-02T17:42:50.467Z,61.34
2023-08-02T17:45:16.670Z,61.36
2023-08-02T17:47:42.955Z,61.40
2023-08-02T17:50:09.106Z,61.48
2023-08-02T17:52:35.260Z,61.39
2023-08-02T17:55:01.414Z,61.42
2023-08-02T17:57:27.553Z,61.30
2023-08-02T17:59:54.418Z,61.38
2023-08-02T18:02:21.389Z,61.33
2023-08-02T18:04:47.553Z,61.37
2023-08-02T18:07:14.252Z,61.38
2023-08-02T18:09:40.421Z,61.33
2023-08-02T18:12:06.576Z,61.33
2023-08-02T18:14:32.799Z,61.38
2023-08-02T18:16:58.970Z,61.42
2023-08-02T18:19:25.154Z,61.42
2023-08-02T18:21:51.297Z,61.24
2023-08-02T18:24:17.434Z,61.43
2023-08-02T18:26:43.581Z,61.43
